createdAt,value
2017-11-04T00:01:05.593Z,6.70
2017-11-04T00:03:33.796Z,6.80
2017-11-04T00:06:01.240Z,6.80
2017-11-04T00:08:28.729Z,6.70
2017-11-04T00:10:56.269Z,6.80
2017-11-04T00:13:23.703Z,6.70
2017-11-04T00:15:51.932Z,6.50
2017-11-04T00:18:19.371Z,6.50
2017-11-04T00:20:46.826Z,6.40
2017-11-04T00:23:14.251Z,6.40
2017-11-04T00:25:41.687Z,6.40
2017-11-04T00:28:09.121Z,6.40
2017-11-04T00:30:36.565Z,6.40
2017-11-04T00:33:04.112Z,6.40
2017-11-04T00:35:31.539Z,6.40
2017-11-04T00:37:59.016Z,6.40
2017-11-04T00:40:26.458Z,6.40
2017-11-04T00:42:53.909Z,6.40
2017-11-04T00:45:21.395Z,6.40
2017-11-04T00:47:48.820Z,6.40
2017-11-04T00:50:17.025Z,6.30
2017-11-04T00:52:44.471Z,6.30
2017-11-04T00:55:11.908Z,6.30
2017-11-04T00:57:39.454Z,6.30
2017-11-04T01:00:06.897Z,6.40
2017-11-04T01:02:34.338Z,6.30
2017-11-04T01:05:01.806Z,6.30
2017-11-04T01:07:29.249Z,6.30
2017-11-04T01:09:56.872Z,6.30
2017-11-04T01:12:24.291Z,6.20
2017-11-04T01:14:51.741Z,6.10
2017-11-04T01:17:19.196Z,6.10
2017-11-04T01:19:46.648Z,6.20
2017-11-04T01:22:14.859Z,6.20
2017-11-04T01:24:42.361Z,6.20
2017-11-04T01:27:09.901Z,6.20
2017-11-04T01:29:37.331Z,6.20
2017-11-04T01:32:04.772Z,6.20
2017-11-04T01:34:32.232Z,6.20
2017-11-04T01:36:59.672Z,6.20
2017-11-04T01:39:27.112Z,6.20
2017-11-04T01:41:54.659Z,6.30
2017-11-04T01:44:22.107Z,6.30
2017-11-04T01:46:49.562Z,6.30
2017-11-04T01:49:17.792Z,6.30
2017-11-04T01:51:45.219Z,6.30
2017-11-04T01:54:12.175Z,6.30
2017-11-04T01:56:39.615Z,6.10
2017-11-04T01:59:07.053Z,6.10
2017-11-04T02:01:34.531Z,6.00
2017-11-04T02:04:02.867Z,6.10
2017-11-04T02:06:30.279Z,6.00
2017-11-04T02:08:57.707Z,6.10
2017-11-04T02:11:25.142Z,6.00
2017-11-04T02:13:52.591Z,6.10
2017-11-04T02:16:20.052Z,6.10
2017-11-04T02:18:47.485Z,6.10
2017-11-04T02:21:14.960Z,6.10
2017-11-04T02:23:42.558Z,6.10
2017-11-04T02:26:09.972Z,6.10
2017-11-04T02:28:37.424Z,6.00
2017-11-04T02:31:04.910Z,6.00
2017-11-04T02:33:32.355Z,6.10
2017-11-04T02:35:59.800Z,6.00
2017-11-04T02:38:27.241Z,6.10
2017-11-04T02:40:54.676Z,6.20
2017-11-04T02:43:22.103Z,6.20
2017-11-04T02:45:49.540Z,6.20
2017-11-04T02:48:16.995Z,6.20
2017-11-04T02:50:44.431Z,6.20
2017-11-04T02:53:11.860Z,6.20
2017-11-04T02:55:39.328Z,6.20
2017-11-04T02:58:06.761Z,6.20
2017-11-04T03:00:34.298Z,6.20
2017-11-04T03:03:01.728Z,6.20
2017-11-04T03:05:29.225Z,6.20
2017-11-04T03:07:56.663Z,6.20
2017-11-04T03:10:24.875Z,6.30
2017-11-04T03:12:53.099Z,6.30
2017-11-04T03:15:20.531Z,6.30
2017-11-04T03:17:47.959Z,6.30
2017-11-04T03:20:15.411Z,6.40
2017-11-04T03:22:42.823Z,6.30
2017-11-04T03:25:10.316Z,6.20
2017-11-04T03:27:37.755Z,6.20
2017-11-04T03:30:05.208Z,6.20
2017-11-04T03:32:32.747Z,6.20
2017-11-04T03:35:00.287Z,6.20
2017-11-04T03:37:27.731Z,6.20
2017-11-04T03:39:55.161Z,6.10
2017-11-04T03:42:22.588Z,6.00
2017-11-04T03:44:50.035Z,6.00
2017-11-04T03:47:17.511Z,6.10
2017-11-04T03:49:44.954Z,6.10
2017-11-04T03:52:12.384Z,6.00
2017-11-04T03:54:39.828Z,6.00
2017-11-04T03:57:07.379Z,6.00
2017-11-04T03:59:34.800Z,6.10
2017-11-04T04:02:02.240Z,6.00
2017-11-04T04:04:29.667Z,5.90
2017-11-04T04:06:57.152Z,5.80
2017-11-04T04:09:24.609Z,5.70
2017-11-04T04:11:52.034Z,5.70
2017-11-04T04:14:20.233Z,5.60
2017-11-04T04:16:47.695Z,5.60
2017-11-04T04:19:15.143Z,5.60
2017-11-04T04:21:42.580Z,5.60
2017-11-04T04:24:10.026Z,5.60
2017-11-04T04:26:37.481Z,5.70
2017-11-04T04:29:04.900Z,5.70
2017-11-04T04:31:32.354Z,5.70
2017-11-04T04:34:00.547Z,5.70
2017-11-04T04:36:28.764Z,5.80
2017-11-04T04:38:56.229Z,5.80
2017-11-04T04:41:23.681Z,5.80
2017-11-04T04:43:51.116Z,5.70
2017-11-04T04:46:19.324Z,5.70
2017-11-04T04:48:46.765Z,5.70
2017-11-04T04:51:14.257Z,5.70
2017-11-04T04:53:41.788Z,5.70
2017-11-04T04:56:09.353Z,5.60
2017-11-04T04:58:36.884Z,5.50
2017-11-04T05:01:04.321Z,5.50
2017-11-04T05:03:31.776Z,5.40
2017-11-04T05:05:59.288Z,5.40
2017-11-04T05:08:26.729Z,5.40
2017-11-04T05:10:54.203Z,5.40
2017-11-04T05:13:21.654Z,5.50
2017-11-04T05:15:49.099Z,5.50
2017-11-04T05:18:16.560Z,5.50
2017-11-04T05:20:43.987Z,5.50
2017-11-04T05:23:11.550Z,5.40
2017-11-04T05:25:38.984Z,5.40
2017-11-04T05:28:07.236Z,5.40
2017-11-04T05:30:34.671Z,5.40
2017-11-04T05:33:02.123Z,5.30
2017-11-04T05:35:29.552Z,5.30
2017-11-04T05:37:56.991Z,5.30
2017-11-04T05:40:24.436Z,5.40
2017-11-04T05:42:51.900Z,5.40
2017-11-04T05:45:19.323Z,5.40
2017-11-04T05:47:46.768Z,5.50
2017-11-04T05:50:14.196Z,5.50
2017-11-04T05:52:41.628Z,5.40
2017-11-04T05:55:09.069Z,5.40
2017-11-04T05:57:36.503Z,5.30
2017-11-04T06:00:03.945Z,5.10
2017-11-04T06:02:31.378Z,5.00
2017-11-04T06:04:59.577Z,4.90
2017-11-04T06:07:27.016Z,5.00
2017-11-04T06:09:54.480Z,5.00
2017-11-04T06:12:21.981Z,5.10
2017-11-04T06:14:49.426Z,5.10
2017-11-04T06:17:16.860Z,5.10
2017-11-04T06:19:44.411Z,5.10
2017-11-04T06:22:11.851Z,5.10
2017-11-04T06:24:39.279Z,5.10
2017-11-04T06:27:06.708Z,5.10
2017-11-04T06:29:34.136Z,5.20
2017-11-04T06:32:01.631Z,5.10
2017-11-04T06:34:29.881Z,5.20
2017-11-04T06:36:57.323Z,5.20
2017-11-04T06:39:24.761Z,5.30
2017-11-04T06:41:52.215Z,5.30
2017-11-04T06:44:19.644Z,5.30
2017-11-04T06:46:48.113Z,5.20
2017-11-04T06:49:15.539Z,5.20
2017-11-04T06:51:42.976Z,5.20
2017-11-04T06:54:10.485Z,5.20
2017-11-04T06:56:38.703Z,5.30
2017-11-04T06:59:06.132Z,5.40
2017-11-04T07:01:33.601Z,5.60
2017-11-04T07:04:01.171Z,5.60
2017-11-04T07:06:29.427Z,5.90
2017-11-04T07:08:57.669Z,6.10
2017-11-04T07:11:25.104Z,6.00
2017-11-04T07:13:52.708Z,6.20
2017-11-04T07:16:20.908Z,6.40
2017-11-04T07:18:48.335Z,6.30
2017-11-04T07:21:15.773Z,6.50
2017-11-04T07:23:43.273Z,6.50
2017-11-04T07:26:10.703Z,6.60
2017-11-04T07:28:38.151Z,6.80
2017-11-04T07:31:05.587Z,6.90
2017-11-04T07:33:33.070Z,7.00
2017-11-04T07:36:00.517Z,7.00
2017-11-04T07:38:28.759Z,7.00
2017-11-04T07:40:56.188Z,7.00
2017-11-04T07:43:23.630Z,7.00
2017-11-04T07:45:51.079Z,7.20
2017-11-04T07:48:18.615Z,7.30
2017-11-04T07:50:46.071Z,7.30
2017-11-04T07:53:13.613Z,7.30
2017-11-04T07:55:41.053Z,7.40
2017-11-04T07:58:08.492Z,7.40
2017-11-04T08:00:35.949Z,7.50
2017-11-04T08:03:03.496Z,7.60
2017-11-04T08:05:30.924Z,7.60
2017-11-04T08:07:58.428Z,7.70
2017-11-04T08:10:25.885Z,7.80
2017-11-04T08:12:53.492Z,7.80
2017-11-04T08:15:21.704Z,8.00
2017-11-04T08:17:49.141Z,8.00
2017-11-04T08:20:16.662Z,8.00
2017-11-04T08:22:44.115Z,8.10
2017-11-04T08:25:11.700Z,8.20
2017-11-04T08:27:39.139Z,8.30
2017-11-04T08:30:06.601Z,8.40
2017-11-04T08:32:34.037Z,8.40
2017-11-04T08:35:01.604Z,8.40
2017-11-04T08:37:29.832Z,8.70
2017-11-04T08:39:57.377Z,8.70
2017-11-04T08:42:24.808Z,8.80
2017-11-04T08:44:52.253Z,8.90
2017-11-04T08:47:19.985Z,8.90
2017-11-04T08:49:47.418Z,8.90
2017-11-04T08:52:14.848Z,8.90
2017-11-04T08:54:42.292Z,9.00
2017-11-04T08:57:09.749Z,9.20
2017-11-04T08:59:37.223Z,9.30
2017-11-04T09:02:04.751Z,9.50
2017-11-04T09:04:33.237Z,9.60
2017-11-04T09:07:00.689Z,9.80
2017-11-04T09:09:28.913Z,10.00
2017-11-04T09:11:57.129Z,10.20
2017-11-04T09:14:24.580Z,10.10
2017-11-04T09:16:52.066Z,10.40
2017-11-04T09:19:20.253Z,10.70
2017-11-04T09:21:47.710Z,10.70
2017-11-04T09:24:15.186Z,10.90
2017-11-04T09:26:42.655Z,11.10
2017-11-04T09:29:10.862Z,11.40
2017-11-04T09:31:38.534Z,11.40
2017-11-04T09:34:05.964Z,11.70
2017-11-04T09:36:33.425Z,11.90
2017-11-04T09:39:00.849Z,12.10
2017-11-04T09:41:28.403Z,12.10
2017-11-04T09:43:56.644Z,12.50
2017-11-04T09:46:24.092Z,12.50
2017-11-04T09:48:52.101Z,12.60
2017-11-04T09:51:20.517Z,13.00
2017-11-04T09:53:47.960Z,13.10
2017-11-04T09:56:15.436Z,13.20
2017-11-04T09:58:43.679Z,13.50
2017-11-04T10:01:11.256Z,13.50
2017-11-04T10:03:39.480Z,13.60
2017-11-04T10:06:06.949Z,13.50
2017-11-04T10:08:34.481Z,13.90
2017-11-04T10:11:01.933Z,14.10
2017-11-04T10:13:29.381Z,14.20
2017-11-04T10:15:57.600Z,14.50
2017-11-04T10:18:25.052Z,14.50
2017-11-04T10:20:52.508Z,14.70
2017-11-04T10:23:19.953Z,14.90
2017-11-04T10:25:47.396Z,15.10
2017-11-04T10:28:14.867Z,15.10
2017-11-04T10:30:43.076Z,15.30
2017-11-04T10:33:10.567Z,15.20
2017-11-04T10:35:38.420Z,15.30
2017-11-04T10:38:06.659Z,15.20
2017-11-04T10:40:34.157Z,15.10
2017-11-04T10:43:01.636Z,15.20
2017-11-04T10:45:29.181Z,15.40
2017-11-04T10:47:56.642Z,15.50
2017-11-04T10:50:24.088Z,15.60
2017-11-04T10:52:52.306Z,15.70
2017-11-04T10:55:19.756Z,15.70
2017-11-04T10:57:47.208Z,15.90
2017-11-04T11:00:14.643Z,16.00
2017-11-04T11:02:42.230Z,16.00
2017-11-04T11:05:10.441Z,16.20
2017-11-04T11:07:37.880Z,16.20
2017-11-04T11:10:05.430Z,16.20
2017-11-04T11:12:32.893Z,16.30
2017-11-04T11:15:00.328Z,16.30
2017-11-04T11:17:27.789Z,16.20
2017-11-04T11:19:55.271Z,16.30
2017-11-04T11:22:22.748Z,16.40
2017-11-04T11:24:50.192Z,16.40
2017-11-04T11:27:17.668Z,16.40
2017-11-04T11:29:45.920Z,16.20
2017-11-04T11:32:13.460Z,16.20
2017-11-04T11:34:42.449Z,16.40
2017-11-04T11:37:09.900Z,16.40
2017-11-04T11:39:38.626Z,16.50
2017-11-04T11:42:06.072Z,16.50
2017-11-04T11:44:33.513Z,16.50
2017-11-04T11:47:00.951Z,16.50
2017-11-04T11:49:28.416Z,16.50
2017-11-04T11:51:55.862Z,16.50
2017-11-04T11:54:23.402Z,16.60
2017-11-04T11:56:50.967Z,16.50
2017-11-04T11:59:18.425Z,16.50
2017-11-04T12:01:46.623Z,16.50
2017-11-04T12:04:14.081Z,16.50
2017-11-04T12:06:41.524Z,16.60
2017-11-04T12:09:08.973Z,16.70
2017-11-04T12:11:36.461Z,16.70
2017-11-04T12:14:04.672Z,16.70
2017-11-04T12:16:32.109Z,16.70
2017-11-04T12:18:59.605Z,16.60
2017-11-04T12:21:27.808Z,16.80
2017-11-04T12:23:55.369Z,16.70
2017-11-04T12:26:22.808Z,16.80
2017-11-04T12:28:50.240Z,16.90
2017-11-04T12:31:17.692Z,16.90
2017-11-04T12:33:45.137Z,17.00
2017-11-04T12:36:12.583Z,17.00
2017-11-04T12:38:40.024Z,17.10
2017-11-04T12:41:07.465Z,17.10
2017-11-04T12:43:34.904Z,17.10
2017-11-04T12:46:02.365Z,17.00
2017-11-04T12:48:29.815Z,17.00
2017-11-04T12:50:57.349Z,17.00
2017-11-04T12:53:24.797Z,16.90
2017-11-04T12:55:52.247Z,16.80
2017-11-04T12:58:19.797Z,16.80
2017-11-04T13:00:47.436Z,16.70
2017-11-04T13:03:14.919Z,16.60
2017-11-04T13:05:43.148Z,16.60
2017-11-04T13:08:10.667Z,16.60
2017-11-04T13:10:38.133Z,16.60
2017-11-04T13:13:05.684Z,16.60
2017-11-04T13:15:33.133Z,16.50
2017-11-04T13:18:00.567Z,16.60
2017-11-04T13:20:28.029Z,16.60
2017-11-04T13:22:55.553Z,16.60
2017-11-04T13:25:22.996Z,16.80
2017-11-04T13:27:50.441Z,16.80
2017-11-04T13:30:17.923Z,16.90
2017-11-04T13:32:45.380Z,16.80
2017-11-04T13:35:12.828Z,16.80
2017-11-04T13:37:40.324Z,16.90
2017-11-04T13:40:07.765Z,16.90
2017-11-04T13:42:36.037Z,17.00
2017-11-04T13:45:04.284Z,17.00
2017-11-04T13:47:31.728Z,17.00
2017-11-04T13:49:59.167Z,17.10
2017-11-04T13:52:26.645Z,17.00
2017-11-04T13:54:54.948Z,17.00
2017-11-04T13:57:22.392Z,17.00
2017-11-04T13:59:49.855Z,17.10
2017-11-04T14:02:17.400Z,17.10
2017-11-04T14:04:44.948Z,17.00
2017-11-04T14:07:12.483Z,17.00
2017-11-04T14:09:39.948Z,17.00
2017-11-04T14:12:07.396Z,17.00
2017-11-04T14:14:35.644Z,16.90
2017-11-04T14:17:04.046Z,16.90
2017-11-04T14:19:32.255Z,16.80
2017-11-04T14:21:59.718Z,16.80
2017-11-04T14:24:27.155Z,16.80
2017-11-04T14:26:54.782Z,16.70
2017-11-04T14:29:22.215Z,16.60
2017-11-04T14:31:49.668Z,16.60
2017-11-04T14:34:17.123Z,16.60
2017-11-04T14:36:44.677Z,16.60
2017-11-04T14:39:12.116Z,16.60
2017-11-04T14:41:39.592Z,16.50
2017-11-04T14:44:07.826Z,16.50
2017-11-04T14:46:35.320Z,16.50
2017-11-04T14:49:03.518Z,16.50
2017-11-04T14:51:31.008Z,16.40
2017-11-04T14:53:59.238Z,16.40
2017-11-04T14:56:26.781Z,16.40
2017-11-04T14:58:54.217Z,16.30
2017-11-04T15:01:23.169Z,16.30
2017-11-04T15:03:50.641Z,16.30
2017-11-04T15:06:18.080Z,16.30
2017-11-04T15:08:45.641Z,16.20
2017-11-04T15:11:13.078Z,16.10
2017-11-04T15:13:40.519Z,16.10
2017-11-04T15:16:08.090Z,16.10
2017-11-04T15:18:36.297Z,16.10
2017-11-04T15:21:05.448Z,16.10
2017-11-04T15:23:33.636Z,16.00
2017-11-04T15:26:01.124Z,16.00
2017-11-04T15:28:28.668Z,16.00
2017-11-04T15:30:56.258Z,15.90
2017-11-04T15:33:24.460Z,15.80
2017-11-04T15:35:51.923Z,15.80
2017-11-04T15:38:19.404Z,15.70
2017-11-04T15:40:47.597Z,15.60
2017-11-04T15:43:15.027Z,15.60
2017-11-04T15:45:42.488Z,15.50
2017-11-04T15:48:09.956Z,15.40
2017-11-04T15:50:37.401Z,15.40
2017-11-04T15:53:04.837Z,15.30
2017-11-04T15:55:32.284Z,15.30
2017-11-04T15:57:59.730Z,15.20
2017-11-04T16:00:27.176Z,15.20
2017-11-04T16:02:54.617Z,15.10
2017-11-04T16:05:22.055Z,15.00
2017-11-04T16:07:49.599Z,14.90
2017-11-04T16:10:17.047Z,14.80
2017-11-04T16:12:44.488Z,14.70
2017-11-04T16:15:11.931Z,14.60
2017-11-04T16:17:39.375Z,14.50
2017-11-04T16:20:06.906Z,14.40
2017-11-04T16:22:34.348Z,14.30
2017-11-04T16:25:01.788Z,14.30
2017-11-04T16:27:29.239Z,14.20
2017-11-04T16:29:56.758Z,14.20
2017-11-04T16:32:24.196Z,14.20
2017-11-04T16:34:51.651Z,14.30
2017-11-04T16:37:19.120Z,14.20
2017-11-04T16:39:46.566Z,14.20
2017-11-04T16:42:14.009Z,14.20
2017-11-04T16:44:42.298Z,14.20
2017-11-04T16:47:10.492Z,14.10
2017-11-04T16:49:37.947Z,14.10
2017-11-04T16:52:05.685Z,14.10
2017-11-04T16:54:33.136Z,14.10
2017-11-04T16:57:00.590Z,14.10
2017-11-04T16:59:28.047Z,14.20
2017-11-04T17:01:55.493Z,14.20
2017-11-04T17:04:23.093Z,14.20
2017-11-04T17:06:50.681Z,14.20
2017-11-04T17:09:18.099Z,14.20
2017-11-04T17:11:45.589Z,14.10
2017-11-04T17:14:13.790Z,14.10
2017-11-04T17:16:41.269Z,14.10
2017-11-04T17:19:08.891Z,14.10
2017-11-04T17:21:36.338Z,14.10
2017-11-04T17:24:03.801Z,14.10
2017-11-04T17:26:31.312Z,14.10
2017-11-04T17:28:59.308Z,14.00
2017-11-04T17:31:27.602Z,14.00
2017-11-04T17:33:55.792Z,14.00
2017-11-04T17:36:23.250Z,14.00
2017-11-04T17:38:51.081Z,14.00
2017-11-04T17:41:18.509Z,14.10
2017-11-04T17:43:46.091Z,14.10
2017-11-04T17:46:13.536Z,14.00
2017-11-04T17:48:41.032Z,14.10
2017-11-04T17:51:09.280Z,14.10
2017-11-04T17:53:37.508Z,14.10
2017-11-04T17:56:04.995Z,14.10
2017-11-04T17:58:32.531Z,14.10
2017-11-04T18:01:00.853Z,14.10
2017-11-04T18:03:28.297Z,14.10
2017-11-04T18:05:55.749Z,14.10
2017-11-04T18:08:23.997Z,14.10
2017-11-04T18:10:51.543Z,14.10
2017-11-04T18:13:18.961Z,14.10
2017-11-04T18:15:46.400Z,14.10
2017-11-04T18:18:13.922Z,14.10
2017-11-04T18:20:42.132Z,14.00
2017-11-04T18:23:09.580Z,14.00
2017-11-04T18:25:37.032Z,14.00
2017-11-04T18:28:05.337Z,13.90
2017-11-04T18:30:32.805Z,13.80
2017-11-04T18:33:00.273Z,13.70
2017-11-04T18:35:27.708Z,13.70
2017-11-04T18:37:55.257Z,13.60
2017-11-04T18:40:22.696Z,13.60
2017-11-04T18:42:50.145Z,13.50
2017-11-04T18:45:17.587Z,13.50
2017-11-04T18:47:45.186Z,13.50
2017-11-04T18:50:12.624Z,13.40
2017-11-04T18:52:40.075Z,13.50
2017-11-04T18:55:07.592Z,13.50
2017-11-04T18:57:35.797Z,13.40
2017-11-04T19:00:03.237Z,13.40
2017-11-04T19:02:30.684Z,13.30
2017-11-04T19:04:58.149Z,13.30
2017-11-04T19:07:25.671Z,13.30
2017-11-04T19:09:53.111Z,13.30
2017-11-04T19:12:20.628Z,13.20
2017-11-04T19:14:48.119Z,13.10
2017-11-04T19:17:15.768Z,13.20
2017-11-04T19:19:43.251Z,13.20
2017-11-04T19:22:11.495Z,13.20
2017-11-04T19:24:39.017Z,13.20
2017-11-04T19:27:06.452Z,13.20
2017-11-04T19:29:33.990Z,13.30
2017-11-04T19:32:01.448Z,13.30
2017-11-04T19:34:28.992Z,13.20
2017-11-04T19:36:56.575Z,13.20
2017-11-04T19:39:24.788Z,13.10
2017-11-04T19:41:52.228Z,13.10
2017-11-04T19:44:19.682Z,13.10
2017-11-04T19:46:47.232Z,13.10
2017-11-04T19:49:14.667Z,13.10
2017-11-04T19:51:42.120Z,13.20
2017-11-04T19:54:10.366Z,13.10
2017-11-04T19:56:37.819Z,13.10
2017-11-04T19:59:05.256Z,13.10
2017-11-04T20:01:32.764Z,13.10
2017-11-04T20:04:00.258Z,13.10
2017-11-04T20:06:27.720Z,13.10
2017-11-04T20:08:55.983Z,13.20
2017-11-04T20:11:23.412Z,13.10
2017-11-04T20:13:51.001Z,13.10
2017-11-04T20:16:18.484Z,13.10
2017-11-04T20:18:46.079Z,13.10
2017-11-04T20:21:13.572Z,13.10
2017-11-04T20:23:41.185Z,13.00
2017-11-04T20:26:08.659Z,12.90
2017-11-04T20:28:36.164Z,12.90
2017-11-04T20:31:03.648Z,13.00
2017-11-04T20:33:31.104Z,13.00
2017-11-04T20:35:58.556Z,13.00
2017-11-04T20:38:26.867Z,13.10
2017-11-04T20:40:54.303Z,13.00
2017-11-04T20:43:21.745Z,13.10
2017-11-04T20:45:49.229Z,13.10
2017-11-04T20:48:16.671Z,13.10
2017-11-04T20:50:44.108Z,13.10
2017-11-04T20:53:11.643Z,13.10
2017-11-04T20:55:39.121Z,13.10
2017-11-04T20:58:06.578Z,13.10
2017-11-04T21:00:34.841Z,13.10
2017-11-04T21:03:03.061Z,13.00
2017-11-04T21:05:30.629Z,13.00
2017-11-04T21:07:58.112Z,12.90
2017-11-04T21:10:25.539Z,12.70
2017-11-04T21:12:53.068Z,12.70
2017-11-04T21:15:21.406Z,12.70
2017-11-04T21:17:48.898Z,12.70
2017-11-04T21:20:17.170Z,12.80
2017-11-04T21:22:44.588Z,12.80
2017-11-04T21:25:12.992Z,12.80
2017-11-04T21:27:40.524Z,12.80
2017-11-04T21:30:08.115Z,12.90
2017-11-04T21:32:35.612Z,12.80
2017-11-04T21:35:03.178Z,12.90
2017-11-04T21:37:30.691Z,12.80
2017-11-04T21:39:58.983Z,12.80
2017-11-04T21:42:26.492Z,12.70
2017-11-04T21:44:54.696Z,12.60
2017-11-04T21:47:22.215Z,12.60
2017-11-04T21:49:49.742Z,12.50
2017-11-04T21:52:18.003Z,12.30
2017-11-04T21:54:46.279Z,12.20
2017-11-04T21:57:13.761Z,12.20
2017-11-04T21:59:41.271Z,12.20
2017-11-04T22:02:08.695Z,12.20
2017-11-04T22:04:36.208Z,12.10
2017-11-04T22:07:04.512Z,12.10
2017-11-04T22:09:32.059Z,12.10
2017-11-04T22:11:59.540Z,12.10
2017-11-04T22:14:26.988Z,12.00
2017-11-04T22:16:54.479Z,12.00
2017-11-04T22:19:22.995Z,11.80
2017-11-04T22:21:50.531Z,11.70
2017-11-04T22:24:17.993Z,11.70
2017-11-04T22:26:45.541Z,11.60
2017-11-04T22:29:12.970Z,11.70
2017-11-04T22:31:40.420Z,11.70
2017-11-04T22:34:07.920Z,11.70
2017-11-04T22:36:35.374Z,11.70
2017-11-04T22:39:02.823Z,11.70
2017-11-04T22:41:30.373Z,11.70
2017-11-04T22:43:57.889Z,11.70
2017-11-04T22:46:25.358Z,11.70
2017-11-04T22:48:52.821Z,11.70
2017-11-04T22:51:20.261Z,11.60
2017-11-04T22:53:48.638Z,11.70
2017-11-04T22:56:16.184Z,11.70
2017-11-04T22:58:43.631Z,11.60
2017-11-04T23:01:11.887Z,11.60
2017-11-04T23:03:39.345Z,11.60
2017-11-04T23:06:07.551Z,11.70
2017-11-04T23:08:35.038Z,11.60
2017-11-04T23:11:02.491Z,11.70
2017-11-04T23:13:30.705Z,11.70
2017-11-04T23:15:58.161Z,11.70
2017-11-04T23:18:25.620Z,11.70
2017-11-04T23:20:53.075Z,11.70
2017-11-04T23:23:21.279Z,11.60
2017-11-04T23:25:48.760Z,11.60
2017-11-04T23:28:16.219Z,11.50
2017-11-04T23:30:44.445Z,11.60
2017-11-04T23:33:11.898Z,11.60
2017-11-04T23:35:39.331Z,11.60
2017-11-04T23:38:06.800Z,11.60
2017-11-04T23:40:34.252Z,11.50
2017-11-04T23:43:02.466Z,11.40
2017-11-04T23:45:29.913Z,11.40
2017-11-04T23:47:57.371Z,11.40
2017-11-04T23:50:24.834Z,11.40
2017-11-04T23:52:52.264Z,11.40
2017-11-04T23:55:29.608Z,11.30
2017-11-04T23:57:57.097Z,11.30
